Terminal Aerodrome Forecast
Issued by NWS

Home | Current Version | Previous Version | Text Only | Print | Product List | Glossary On
Versions: 1 2 3 4 5 6 7 8 9 10 11 12 13
171
FTUS46 KMFR 231137
TAFLMT
TAF
KLMT 231137Z 2312/2412 01007KT P6SM SKC
     FM240000 35010KT P6SM SCT080
     FM240500 05004KT P6SM SKC=

USA.gov is the U.S. government's official web portal to all federal, state and local government web resources and services.